Latest Coastal Weather Observations for Swan Island

IDT60701

Issued at 1:35 pm EST Saturday 23 August 2014 (issued every 10 minutes, with the page automatically refreshed every 10 minutes)

About coastal observations | Map of coastal stations | Coastal observations for TAS | Marine services | Other Formats
Station Details ID: 092123 Name: SWAN ISLAND Lat: -40.73 Lon: 148.12 Height: 15.0 m
Data from the previous 72 hours. | See also: Recent months at Swan Island
Date/Time
EST
Temp

°C
Wind Pressure Rain
since 9am
mm
Weather Cloud Vis
km
Sea
Height
m
Swell
Dir
 
Speed
knots
Gust
knots
hPa Trend Height
m
Period
s
Dir
23/01:30pm 15.6 NE 8 11 1029.4 - 0.0 - - - - - - -
23/01:00pm 15.6 NE 8 10 1029.5 - 0.0 - - - - - - -
23/12:30pm 15.4 NE 8 11 1029.9 - 0.0 - - - - - - -
23/12:00pm 15.3 ENE 10 13 1030.3 - 0.0 - - - - - - -
23/11:30am 15.6 NE 7 9 1030.9 - 0.0 - - - - - - -
23/11:00am 15.4 NNE 10 12 1031.1 - 0.0 - - - - - - -
23/10:30am 15.2 NE 7 10 1031.3 - 0.0 - - - - - - -
23/10:00am 14.8 NE 7 8 1031.4 - 0.0 - - - - - - -
23/09:30am 14.4 ENE 7 9 1031.4 - 0.0 - - - - - - -
23/09:00am 14.0 ENE 6 7 1031.5 - 0.4 - - - - - - -
23/08:30am 13.6 ENE 8 10 1031.6 - 0.4 - - - - - - -
23/08:00am 13.2 ENE 7 8 1031.7 - 0.4 - - - - - - -
23/07:30am 12.6 ENE 7 8 1031.5 - 0.4 - - - - - - -
23/07:00am 12.5 ENE 7 8 1031.2 - 0.4 - - - - - - -
23/06:30am 12.4 ENE 8 9 1030.9 - 0.4 - - - - - - -
23/06:00am 12.3 ENE 8 10 1030.8 - 0.4 - - - - - - -
23/05:30am 12.4 ENE 9 10 1030.7 - 0.4 - - - - - - -
23/05:00am 12.2 ENE 6 7 1030.5 - 0.4 - - - - - - -
23/04:30am 12.0 ENE 6 8 1030.4 - 0.4 - - - - - - -
23/04:00am 11.1 SE 4 5 1030.5 - 0.4 - - - - - - -
23/03:30am 11.4 SSE 2 3 1030.7 - 0.2 - - - - - - -
23/03:00am 11.4 SSE 2 3 1030.8 - 0.2 - - - - - - -
23/02:30am 11.2 SSE 4 5 1031.0 - 0.2 - - - - - - -
23/02:00am 11.1 SE 2 4 1031.3 - 0.2 - - - - - - -
23/01:30am 11.4 NE 2 3 1031.5 - 0.2 - - - - - - -
23/01:00am 12.1 NE 3 3 1031.5 - 0.2 - - - - - - -
23/12:30am 12.1 NNE 4 5 1031.4 - 0.2 - - - - - - -
23/12:00am 12.0 NE 3 4 1031.4 - 0.2 Recent precip. - - - - - -
 
Date/Time
EST
Temp

°C
Wind Pressure Rain
since 9am
mm
Weather Cloud Vis
km
Sea
Height
m
Swell
Dir
 
Speed
knots
Gust
knots
hPa Trend Height
m
Period
s
Dir
22/11:30pm 12.0 NNE 4 5 1031.6 - 0.2 - - - - - - -
22/11:00pm 11.9 NNE 5 6 1031.7 - 0.0 - - - - - - -
22/10:30pm 12.1 NE 5 5 1031.9 - 0.0 - - - - - - -
22/10:00pm 12.2 NE 7 8 1032.0 - 0.0 - - - - - - -
22/09:30pm 12.4 NE 9 11 1032.0 - 0.0 - - - - - - -
22/09:00pm 12.3 ENE 7 9 1032.0 - 0.0 - - - - - - -
22/08:30pm 12.4 ENE 10 11 1031.9 - 0.0 - - - - - - -
22/08:00pm 12.4 ENE 8 11 1031.8 - 0.0 - - - - - - -
22/07:30pm 12.3 ENE 8 10 1031.8 - 0.0 - - - - - - -
22/07:00pm 12.4 NE 9 10 1031.8 - 0.0 - - - - - - -
22/06:30pm 12.5 NE 9 11 1031.7 - 0.0 - - - - - - -
22/06:00pm 12.5 NE 8 10 1031.5 - 0.0 - - - - - - -
22/05:30pm 12.5 NE 9 10 1031.4 - 0.0 - - - - - - -
22/05:00pm 12.6 NE 8 10 1031.2 - 0.0 - - - - - - -
22/04:30pm 12.7 ENE 7 9 1031.1 - 0.0 - - - - - - -
22/04:00pm 12.9 ENE 8 9 1031.1 - 0.0 - - - - - - -
22/03:30pm 13.1 ENE 7 8 1031.2 - 0.0 - - - - - - -
22/03:00pm 13.4 ENE 6 8 1031.5 - 0.0 - - - - - - -
22/02:30pm 13.5 NE 5 7 1031.6 - 0.0 - - - - - - -
22/02:00pm 13.5 ENE 6 8 1031.7 - 0.0 - - - - - - -
22/01:30pm 13.1 ENE 11 14 1031.9 - 0.0 - - - - - - -
22/01:00pm 14.7 E 9 13 1032.1 - 0.0 - - - - - - -
22/12:30pm 15.2 ENE 10 12 1032.3 - 0.0 - - - - - - -
22/12:00pm 15.1 ENE 7 10 1032.7 - 0.0 - - - - - - -
22/11:30am 14.3 ENE 9 12 1033.1 - 0.0 - - - - - - -
22/11:00am 14.3 E 9 11 1033.5 - 0.0 - - - - - - -
22/10:30am 14.1 ENE 8 11 1033.5 - 0.0 - - - - - - -
22/10:00am 13.9 ENE 10 11 1033.6 - 0.0 - - - - - - -
22/09:30am 13.2 NE 8 9 1033.8 - 0.0 - - - - - - -
22/09:00am 13.0 ENE 10 12 1033.9 - 0.6 - - - - - - -
22/08:30am 13.1 ENE 9 11 1033.8 - 0.6 - - - - - - -
22/08:00am 12.8 ENE 7 9 1033.8 - 0.6 - - - - - - -
22/07:30am 12.3 E 6 8 1033.6 - 0.6 - - - - - - -
22/07:00am 12.2 E 6 9 1033.3 - 0.6 - - - - - - -
22/06:30am 11.4 ESE 3 4 1033.1 - 0.6 - - - - - - -
22/06:00am 11.6 ESE 3 4 1032.9 - 0.6 - - - - - - -
22/05:30am 11.5 ESE 3 5 1032.8 - 0.6 - - - - - - -
22/05:00am 11.6 E 6 7 1032.7 - 0.6 - - - - - - -
22/04:30am 11.9 NE 9 16 1032.7 - 0.4 - - - - - - -
22/04:00am 12.1 NE 8 10 1032.7 - 0.0 - - - - - - -
22/03:30am 12.2 ENE 8 12 1032.6 - 0.0 - - - - - - -
22/03:00am 12.5 ENE 8 11 1032.7 - 0.0 - - - - - - -
22/02:30am 12.4 E 9 11 1032.8 - 0.0 - - - - - - -
22/02:00am 12.5 E 10 12 1033.1 - 0.0 - - - - - - -
22/01:30am 12.5 E 10 14 1033.3 - 0.0 - - - - - - -
22/01:00am 12.5 E 10 14 1033.4 - 0.0 - - - - - - -
22/12:30am 12.3 E 7 8 1033.4 - 0.0 - - - - - - -
22/12:00am 12.4 ENE 9 10 1033.6 - 0.0 - - - - - - -
 
Date/Time
EST
Temp

°C
Wind Pressure Rain
since 9am
mm
Weather Cloud Vis
km
Sea
Height
m
Swell
Dir
 
Speed
knots
Gust
knots
hPa Trend Height
m
Period
s
Dir
21/11:30pm 12.4 ENE 13 15 1033.6 - 0.0 - - - - - - -
21/11:00pm 12.4 ENE 11 15 1033.5 - 0.0 - - - - - - -
21/10:30pm 12.3 ENE 11 13 1033.5 - 0.0 - - - - - - -
21/10:00pm 12.2 ENE 11 16 1033.5 - 0.0 - - - - - - -
21/09:30pm 11.9 E 10 13 1033.5 - 0.0 - - - - - - -
21/09:00pm 11.9 ENE 11 14 1033.4 - 0.0 - - - - - - -
21/08:30pm 11.8 ENE 11 15 1033.4 - 0.0 - - - - - - -
21/08:00pm 11.9 ENE 12 17 1033.2 - 0.0 - - - - - - -
21/07:30pm 11.9 ENE 10 12 1033.0 - 0.0 - - - - - - -
21/07:00pm 12.0 ENE 10 12 1032.9 - 0.0 - - - - - - -
21/06:30pm 12.0 E 7 9 1032.7 - 0.0 - - - - - - -
21/06:00pm 12.1 E 8 10 1032.4 - 0.0 - - - - - - -
21/05:30pm 11.9 SE 10 12 1032.1 - 0.0 - - - - - - -
21/05:00pm 12.0 SE 10 13 1031.9 - 0.0 - - - - - - -
21/04:30pm 12.3 ESE 11 13 1031.7 - 0.0 - - - - - - -
21/04:00pm 12.5 ESE 12 14 1031.5 - 0.0 - - - - - - -
21/03:30pm 12.6 SE 9 11 1031.5 - 0.0 - - - - - - -
21/03:00pm 13.1 SE 9 11 1031.5 - 0.0 - - - - - - -
21/02:30pm 12.9 SE 6 9 1031.6 - 0.0 - - - - - - -
21/02:00pm 12.8 ESE 11 14 1031.7 - 0.0 - - - - - - -
21/01:30pm 13.3 ESE 10 12 1031.8 - 0.0 - - - - - - -
21/01:00pm 13.5 ESE 10 12 1031.9 - 0.0 - - - - - - -
21/12:30pm 13.5 ESE 11 12 1032.1 - 0.0 - - - - - - -
21/12:00pm 13.3 ESE 11 13 1032.3 - 0.0 - - - - - - -
21/11:30am 13.4 SE 11 13 1032.5 - 0.0 - - - - - - -
21/11:00am 13.1 SE 11 14 1032.6 - 0.0 - - - - - - -
21/10:30am 13.0 SE 12 15 1032.7 - 0.0 - - - - - - -
21/10:00am 12.7 SE 12 15 1032.7 - 0.0 - - - - - - -
21/09:30am 12.4 SE 11 14 1032.6 - 0.0 - - - - - - -
21/09:00am 11.0 SSE 8 12 1032.6 - 0.0 - - - - - - -
21/08:30am 10.1 SSE 7 9 1032.6 - 0.0 - - - - - - -
21/08:00am 9.8 S 7 9 1032.2 - 0.0 - - - - - - -
21/07:30am 9.5 S 6 8 1031.9 - 0.0 - - - - - - -
21/07:00am 9.2 S 5 7 1031.6 - 0.0 - - - - - - -
21/06:30am 9.0 S 5 7 1031.2 - 0.0 - - - - - - -
21/06:00am 9.3 S 5 7 1030.9 - 0.0 - - - - - - -
21/05:30am 9.3 S 6 8 1030.7 - 0.0 - - - - - - -
21/05:00am 9.2 S 6 8 1030.5 - 0.0 - - - - - - -
21/04:30am 9.1 S 7 10 1030.3 - 0.0 - - - - - - -
21/04:00am 9.2 S 7 9 1030.0 - 0.0 - - - - - - -
21/03:30am 9.2 S 7 10 1029.9 - 0.0 - - - - - - -
21/03:00am 9.0 S 9 11 1029.8 - 0.0 - - - - - - -
21/02:30am 9.1 S 8 10 1029.8 - 0.0 - - - - - - -
21/02:00am 8.9 S 6 8 1030.0 - 0.0 - - - - - - -
21/01:30am 9.2 S 6 9 1030.0 - 0.0 - - - - - - -
21/01:00am 9.5 S 7 10 1029.9 - 0.0 - - - - - - -
21/12:30am 10.1 SSE 8 11 1030.0 - 0.0 - - - - - - -
21/12:00am 9.5 S 6 8 1030.1 - 0.0 - - - - - - -
 
Date/Time
EST
Temp

°C
Wind Pressure Rain
since 9am
mm
Weather Cloud Vis
km
Sea
Height
m
Swell
Dir
 
Speed
knots
Gust
knots
hPa Trend Height
m
Period
s
Dir
20/11:30pm 9.4 S 5 7 1030.0 - 0.0 - - - - - - -
20/11:00pm 9.4 S 5 7 1029.8 - 0.0 - - - - - - -
20/10:30pm 9.4 S 5 6 1029.9 - 0.0 - - - - - - -
20/10:00pm 10.0 S 4 6 1030.0 - 0.0 - - - - - - -
20/09:30pm 10.1 S 4 6 1029.9 - 0.0 - - - - - - -
20/09:00pm 10.9 SE 5 7 1029.7 - 0.0 - - - - - - -
20/08:30pm 10.9 ESE 7 9 1029.5 - 0.0 - - - - - - -
20/08:00pm 10.8 ESE 8 10 1029.0 - 0.0 - - - - - - -
20/07:30pm 11.0 ESE 8 10 1028.9 - 0.0 - - - - - - -
20/07:00pm 11.0 ESE 8 10 1028.6 - 0.0 - - - - - - -
20/06:30pm 11.1 SE 10 12 1028.1 - 0.0 - - - - - - -
20/06:00pm 11.1 SE 10 12 1027.7 - 0.0 - - - - - - -
20/05:30pm 11.2 ESE 10 13 1027.5 - 0.0 - - - - - - -
20/05:00pm 11.3 SE 11 14 1027.2 - 0.0 - - - - - - -
20/04:30pm 11.6 ESE 10 11 1026.9 - 0.0 - - - - - - -
20/04:00pm 11.8 ESE 10 12 1026.6 - 0.0 - - - - - - -
20/03:30pm 12.1 ESE 10 11 1026.5 - 0.0 - - - - - - -
20/03:00pm 11.8 ESE 11 13 1026.2 - 0.0 - - - - - - -
20/02:30pm 12.2 ESE 10 12 1026.1 - 0.0 - - - - - - -
20/02:00pm 12.8 ESE 8 9 1025.9 - 0.0 - - - - - - -

Other Formats:

Comma delimited format used in spreadsheet applications
http://www.bom.gov.au/fwo/IDT60701/IDT60701.95985.axf

JavaScript Object Notation format (JSON) in row-major order
http://www.bom.gov.au/fwo/IDT60701/IDT60701.95985.json